createdAt,value
2023-01-19T02:44:42.810Z,1513.00
2023-01-19T02:45:42.852Z,1514.00
2023-01-19T02:46:42.762Z,1510.00
2023-01-19T02:47:42.762Z,1510.00
2023-01-19T02:48:42.750Z,1509.00
2023-01-19T02:49:42.744Z,1508.00
2023-01-19T02:50:42.727Z,1508.00
2023-01-19T02:51:42.695Z,1508.00
2023-01-19T02:52:42.671Z,1506.00
2023-01-19T02:53:42.654Z,1509.00
2023-01-19T02:54:42.648Z,1507.00
2023-01-19T02:55:42.624Z,1507.00
2023-01-19T02:56:42.608Z,1505.00
2023-01-19T02:57:42.579Z,1503.00
2023-01-19T02:58:42.560Z,1503.00
2023-01-19T02:59:42.536Z,1501.00
2023-01-19T03:00:42.519Z,1497.00
2023-01-19T03:01:42.584Z,1496.00
2023-01-19T03:02:42.495Z,1491.00
2023-01-19T03:03:42.439Z,1493.00
2023-01-19T03:04:42.432Z,1495.00
2023-01-19T03:05:42.402Z,1497.00
2023-01-19T03:06:42.799Z,1493.00
2023-01-19T03:07:42.399Z,1493.00
2023-01-19T03:08:42.317Z,1493.00
2023-01-19T03:09:42.363Z,1490.00
2023-01-19T03:10:42.284Z,1489.00
2023-01-19T03:11:42.249Z,1489.00
2023-01-19T03:12:42.229Z,1490.00
2023-01-19T03:13:42.201Z,1493.00
2023-01-19T03:14:42.170Z,1489.00
2023-01-19T03:15:42.197Z,1486.00
2023-01-19T03:16:42.164Z,1490.00
2023-01-19T03:17:42.081Z,1492.00
2023-01-19T03:18:42.816Z,1494.00
2023-01-19T03:19:42.032Z,1491.00
2023-01-19T03:20:42.080Z,1486.00
2023-01-19T03:21:41.967Z,1482.00
2023-01-19T03:22:42.796Z,1482.00
2023-01-19T03:23:41.906Z,1480.00
2023-01-19T03:24:41.874Z,1477.00
2023-01-19T03:25:41.851Z,1472.00
2023-01-19T03:26:41.819Z,1476.00
2023-01-19T03:27:41.791Z,1474.00
2023-01-19T03:28:41.760Z,1470.00
2023-01-19T03:29:41.729Z,1470.00
2023-01-19T03:30:41.740Z,1471.00
2023-01-19T03:31:41.669Z,1472.00
2023-01-19T03:32:41.661Z,1468.00
2023-01-19T03:33:41.616Z,1469.00
2023-01-19T03:34:41.575Z,1470.00
2023-01-19T03:35:42.293Z,1466.00
2023-01-19T03:36:41.529Z,1468.00
2023-01-19T03:37:41.476Z,1469.00
2023-01-19T03:38:41.455Z,1466.00
2023-01-19T03:39:42.291Z,1463.00
2023-01-19T03:40:41.391Z,1463.00
2023-01-19T03:41:42.310Z,1461.00
2023-01-19T03:42:41.328Z,1458.00
2023-01-19T03:43:41.293Z,1458.00
2023-01-19T03:44:41.256Z,1460.00
2023-01-19T03:45:41.224Z,1461.00
2023-01-19T03:46:41.192Z,1462.00
2023-01-19T03:47:41.162Z,1458.00
2023-01-19T03:48:41.113Z,1458.00
2023-01-19T03:49:41.089Z,1454.00
2023-01-19T03:50:41.059Z,1454.00
2023-01-19T03:51:41.803Z,1452.00
2023-01-19T03:52:41.050Z,1447.00
2023-01-19T03:53:40.945Z,1443.00
2023-01-19T03:54:40.906Z,1441.00
2023-01-19T03:55:40.863Z,1440.00
2023-01-19T03:56:40.816Z,1441.00
2023-01-19T03:57:40.790Z,1441.00
2023-01-19T03:58:40.745Z,1440.00
2023-01-19T03:59:40.705Z,1437.00
2023-01-19T04:00:40.677Z,1435.00
2023-01-19T04:01:40.683Z,1433.00
2023-01-19T04:02:40.662Z,1429.00
2023-01-19T04:03:40.554Z,1427.00
2023-01-19T04:04:40.574Z,1424.00
2023-01-19T04:05:40.467Z,1424.00
2023-01-19T04:06:40.484Z,1423.00
2023-01-19T04:07:40.404Z,1425.00
2023-01-19T04:08:40.359Z,1425.00
2023-01-19T04:09:40.296Z,1427.00
2023-01-19T04:10:40.264Z,1427.00
2023-01-19T04:11:40.214Z,1428.00
2023-01-19T04:12:40.171Z,1425.00
2023-01-19T04:13:40.129Z,1421.00
2023-01-19T04:14:40.084Z,1418.00
2023-01-19T04:15:40.087Z,1415.00
2023-01-19T04:16:40.102Z,1413.00
2023-01-19T04:17:39.985Z,1413.00
2023-01-19T04:18:39.940Z,1411.00
2023-01-19T04:19:39.889Z,1410.00
2023-01-19T04:20:39.895Z,1410.00
2023-01-19T04:21:39.865Z,1408.00
2023-01-19T04:22:39.759Z,1406.00
2023-01-19T04:23:39.718Z,1406.00
2023-01-19T04:24:39.687Z,1404.00
2023-01-19T04:25:39.670Z,1403.00
2023-01-19T04:26:39.596Z,1402.00
2023-01-19T04:27:39.567Z,1399.00
2023-01-19T04:28:39.504Z,1398.00
2023-01-19T04:29:39.459Z,1393.00
2023-01-19T04:30:39.420Z,1391.00
2023-01-19T04:31:39.420Z,1393.00
2023-01-19T04:32:39.369Z,1393.00
2023-01-19T04:33:39.297Z,1393.00
2023-01-19T04:34:39.819Z,1391.00
2023-01-19T04:35:39.205Z,1391.00
2023-01-19T04:36:39.323Z,1387.00
2023-01-19T04:37:39.129Z,1386.00
2023-01-19T04:38:39.088Z,1385.00
2023-01-19T04:39:39.049Z,1384.00
2023-01-19T04:40:39.006Z,1385.00
2023-01-19T04:41:38.965Z,1389.00
2023-01-19T04:42:38.919Z,1386.00
2023-01-19T04:43:38.888Z,1385.00
2023-01-19T04:44:38.837Z,1386.00
2023-01-19T04:45:38.800Z,1383.00
2023-01-19T04:46:38.779Z,1384.00
2023-01-19T04:47:38.722Z,1382.00
2023-01-19T04:48:40.599Z,1380.00
2023-01-19T04:49:38.823Z,1378.00
2023-01-19T04:50:38.728Z,1378.00
2023-01-19T04:51:38.694Z,1378.00
2023-01-19T04:52:38.655Z,1375.00
2023-01-19T05:24:37.404Z,1346.00
2023-01-19T05:25:37.842Z,1345.00
2023-01-19T05:26:37.350Z,1347.00
2023-01-19T05:27:37.290Z,1345.00
2023-01-19T05:28:37.253Z,1346.00
2023-01-19T05:29:37.212Z,1344.00
2023-01-19T05:30:37.232Z,1346.00
2023-01-19T05:31:37.220Z,1348.00
2023-01-19T05:32:37.194Z,1344.00
2023-01-19T05:33:37.067Z,1343.00
2023-01-19T05:34:37.094Z,1342.00
2023-01-19T05:35:36.977Z,1339.00
2023-01-19T05:36:36.947Z,1338.00
2023-01-19T05:37:37.054Z,1337.00
2023-01-19T05:38:36.869Z,1338.00
2023-01-19T05:39:36.895Z,1335.00
2023-01-19T05:40:36.790Z,1340.00
2023-01-19T05:41:36.756Z,1339.00
2023-01-19T05:42:36.728Z,1338.00
2023-01-19T05:43:36.681Z,1336.00
2023-01-19T05:44:36.676Z,1334.00
2023-01-19T05:45:36.613Z,1335.00
2023-01-19T05:46:36.589Z,1336.00
2023-01-19T05:47:36.549Z,1335.00
2023-01-19T05:48:36.509Z,1331.00
2023-01-19T05:49:36.483Z,1328.00
2023-01-19T05:50:36.431Z,1326.00
2023-01-19T05:51:36.849Z,1324.00
2023-01-19T05:52:36.361Z,1322.00
2023-01-19T05:53:36.316Z,1318.00
2023-01-19T05:54:36.283Z,1315.00
2023-01-19T05:55:36.284Z,1309.00
2023-01-19T05:56:36.215Z,1310.00
2023-01-19T05:57:36.178Z,1313.00
2023-01-19T05:58:36.133Z,1316.00
2023-01-19T05:59:36.070Z,1317.00
2023-01-19T06:00:36.033Z,1319.00
2023-01-19T06:01:38.667Z,1318.00
2023-01-19T06:02:35.922Z,1317.00
2023-01-19T06:03:35.907Z,1314.00
2023-01-19T06:04:36.359Z,1310.00
2023-01-19T06:05:35.699Z,1310.00
2023-01-19T06:06:35.629Z,1308.00
2023-01-19T06:07:35.550Z,1311.00
2023-01-19T07:25:31.084Z,1829.00
2023-01-19T08:15:28.939Z,2906.00
2023-01-19T08:16:28.867Z,2928.00
2023-01-19T08:17:28.805Z,2962.00
2023-01-19T08:18:28.761Z,2986.00
2023-01-19T08:19:28.711Z,2996.00
2023-01-19T08:20:28.664Z,2993.00
2023-01-19T08:21:28.600Z,2996.00
2023-01-19T08:22:28.551Z,3004.00
2023-01-19T08:23:28.557Z,3023.00
2023-01-19T08:24:28.464Z,3124.00
2023-01-19T08:25:28.403Z,3123.00
2023-01-19T08:26:28.364Z,3140.00
2023-01-19T08:27:28.294Z,3181.00
2023-01-19T08:28:28.242Z,3213.00
2023-01-19T08:29:28.172Z,3242.00
2023-01-19T08:30:28.114Z,3296.00
2023-01-19T08:31:28.114Z,3320.00
2023-01-19T08:32:28.030Z,3334.00
2023-01-19T08:33:27.910Z,3351.00
2023-01-19T08:34:27.849Z,3391.00
2023-01-19T08:35:27.773Z,3426.00
2023-01-19T08:36:27.715Z,3450.00
2023-01-19T08:37:27.640Z,3468.00
2023-01-19T08:38:27.579Z,3503.00
2023-01-19T08:39:27.908Z,3526.00
2023-01-19T08:40:27.428Z,3548.00
2023-01-19T08:41:27.358Z,3563.00
2023-01-19T08:42:27.280Z,3587.00
2023-01-19T08:43:27.221Z,3614.00
2023-01-19T08:44:27.143Z,3636.00
2023-01-19T08:45:27.078Z,3662.00
2023-01-19T08:46:27.050Z,3686.00
2023-01-19T08:47:26.966Z,3711.00
2023-01-19T08:48:26.855Z,3725.00
2023-01-19T08:49:26.805Z,3749.00
2023-01-19T08:50:26.705Z,3771.00
2023-01-19T08:51:26.639Z,3789.00
2023-01-19T08:52:26.558Z,3816.00
2023-01-19T08:53:26.480Z,3847.00
2023-01-19T08:54:26.401Z,3869.00
2023-01-19T08:55:26.323Z,3890.00
2023-01-19T08:56:26.247Z,3914.00
2023-01-19T08:57:26.180Z,3945.00
2023-01-19T08:58:26.106Z,3964.00
2023-01-19T08:59:26.023Z,3994.00
2023-01-19T09:00:25.949Z,4020.00
2023-01-19T09:01:25.966Z,4040.00
2023-01-19T09:02:25.942Z,4071.00
2023-01-19T09:03:25.783Z,3175.00
2023-01-19T09:04:25.657Z,2700.00
2023-01-19T09:05:25.609Z,3032.00
2023-01-19T09:06:25.598Z,3743.00
2023-01-19T09:07:25.557Z,3494.00
2023-01-19T09:08:25.523Z,3384.00
2023-01-19T09:09:25.510Z,3296.00
2023-01-19T10:47:20.036Z,4320.00
2023-01-19T10:48:19.999Z,4314.00
2023-01-19T10:49:19.939Z,4307.00
2023-01-19T10:50:19.898Z,4308.00
2023-01-19T10:51:19.927Z,4311.00
2023-01-19T10:52:19.956Z,4306.00
2023-01-19T10:53:19.820Z,4296.00
2023-01-19T10:54:19.827Z,4291.00
2023-01-19T10:55:19.832Z,4288.00
2023-01-19T10:56:19.797Z,4282.00
2023-01-19T10:57:19.730Z,4275.00
2023-01-19T10:58:19.704Z,4266.00
2023-01-19T10:59:19.705Z,4259.00
2023-01-19T11:00:19.697Z,4257.00
2023-01-19T11:01:19.688Z,4244.00
2023-01-19T11:02:19.856Z,4232.00
2023-01-19T11:03:19.613Z,4228.00
2023-01-19T11:04:19.551Z,4224.00
2023-01-19T11:05:19.522Z,4214.00
2023-01-19T11:06:19.511Z,4206.00
2023-01-19T11:07:19.486Z,4198.00
2023-01-19T11:08:19.467Z,4188.00
2023-01-19T11:09:19.447Z,4183.00
2023-01-19T11:10:19.416Z,4169.00
2023-01-19T11:11:19.414Z,4162.00
2023-01-19T11:12:19.363Z,4151.00
2023-01-19T11:13:19.337Z,4134.00
2023-01-19T11:14:19.332Z,4123.00
2023-01-19T11:15:19.324Z,4115.00
2023-01-19T11:17:19.259Z,4094.00
2023-01-19T11:18:19.248Z,4086.00
2023-01-19T11:19:19.243Z,4077.00
2023-01-19T11:20:19.216Z,4072.00
2023-01-19T11:21:19.197Z,4061.00
2023-01-19T11:22:19.154Z,4057.00
2023-01-19T11:23:19.118Z,4057.00
2023-01-19T11:24:19.115Z,4057.00
2023-01-19T11:25:19.095Z,4050.00
2023-01-19T11:26:19.069Z,4050.00
2023-01-19T11:27:19.053Z,4050.00
2023-01-19T11:28:19.012Z,4044.00
2023-01-19T11:29:19.005Z,4035.00
2023-01-19T11:30:18.965Z,4020.00
2023-01-19T11:31:19.571Z,4010.00
2023-01-19T11:32:18.918Z,4000.00
2023-01-19T11:33:18.875Z,4000.00
2023-01-19T11:34:18.851Z,3989.00
2023-01-19T11:35:18.890Z,3984.00
2023-01-19T11:36:18.791Z,3980.00
2023-01-19T11:37:18.845Z,3979.00
2023-01-19T11:38:18.737Z,3987.00
2023-01-19T11:39:18.715Z,3984.00
2023-01-19T11:40:18.770Z,3982.00
2023-01-19T11:41:18.670Z,3985.00
2023-01-19T11:42:18.643Z,3972.00
2023-01-19T11:43:19.389Z,3959.00
2023-01-19T11:44:18.578Z,3952.00
2023-01-19T11:45:18.568Z,3953.00
2023-01-19T11:46:18.527Z,3951.00
2023-01-19T11:47:18.512Z,3943.00
2023-01-19T11:48:18.472Z,3930.00
2023-01-19T11:49:18.958Z,3923.00
2023-01-19T11:50:18.428Z,3921.00
2023-01-19T11:51:18.460Z,3919.00
2023-01-19T11:52:18.388Z,3920.00
2023-01-19T11:53:18.351Z,3917.00
2023-01-19T11:54:18.337Z,3922.00
2023-01-19T11:55:18.317Z,3911.00
2023-01-19T11:56:18.275Z,3911.00
2023-01-19T11:57:18.243Z,3906.00
2023-01-19T11:58:18.255Z,3893.00
2023-01-19T11:59:18.961Z,3890.00
2023-01-19T12:00:18.201Z,3874.00
2023-01-19T12:01:18.203Z,3861.00
2023-01-19T12:02:18.208Z,3853.00
2023-01-19T12:03:18.169Z,3850.00
2023-01-19T12:04:18.206Z,3853.00
2023-01-19T12:05:18.095Z,3848.00
2023-01-19T12:06:18.087Z,3840.00
2023-01-19T12:07:18.050Z,3830.00
2023-01-19T12:08:18.064Z,3800.00
2023-01-19T12:09:18.013Z,3799.00
2023-01-19T12:10:18.053Z,3801.00
2023-01-19T12:11:17.982Z,3802.00
2023-01-19T12:12:17.941Z,3797.00
2023-01-19T12:13:17.928Z,3790.00
2023-01-19T12:14:17.962Z,3782.00
2023-01-19T12:15:17.879Z,3781.00
2023-01-19T12:16:17.889Z,3780.00
2023-01-19T12:17:17.833Z,3776.00
2023-01-19T12:18:17.820Z,3773.00
2023-01-19T12:19:17.790Z,3772.00
2023-01-19T12:20:17.779Z,3768.00
2023-01-19T12:21:17.755Z,3766.00
2023-01-19T12:22:17.977Z,3761.00
2023-01-19T12:23:18.479Z,3755.00
2023-01-19T12:24:17.800Z,3748.00
2023-01-19T12:25:17.697Z,3743.00
2023-01-19T12:26:17.668Z,3744.00
2023-01-19T12:27:17.664Z,3737.00
2023-01-19T12:28:17.628Z,3729.00
2023-01-19T12:29:17.606Z,3718.00
2023-01-19T12:30:17.591Z,3707.00
2023-01-19T12:31:17.758Z,3706.00
2023-01-19T12:32:17.565Z,3713.00
2023-01-19T12:33:17.617Z,3710.00
2023-01-19T12:34:17.543Z,3704.00
2023-01-19T12:35:17.528Z,3701.00
2023-01-19T12:36:17.535Z,3696.00
2023-01-19T12:37:17.505Z,3693.00
2023-01-19T12:38:17.493Z,3682.00
2023-01-19T12:39:17.551Z,3677.00
2023-01-19T12:40:17.458Z,3675.00
2023-01-19T12:41:18.403Z,3670.00
2023-01-19T12:42:18.535Z,3664.00
2023-01-19T12:43:17.415Z,3652.00
2023-01-19T12:44:17.418Z,3648.00
2023-01-19T12:45:17.386Z,3641.00
2023-01-19T12:46:17.389Z,3642.00
2023-01-19T12:47:17.339Z,3637.00
2023-01-19T13:06:17.052Z,3554.00
2023-01-19T13:07:16.975Z,3567.00
2023-01-19T13:08:16.929Z,3581.00
2023-01-19T13:09:16.966Z,3654.00
2023-01-19T13:10:16.875Z,3669.00
2023-01-19T13:11:16.844Z,3696.00
2023-01-19T13:12:16.846Z,3702.00
2023-01-19T13:13:16.852Z,3720.00
2023-01-19T13:14:16.818Z,3784.00
2023-01-19T13:15:16.841Z,3807.00
2023-01-19T13:16:16.885Z,3814.00
2023-01-19T13:17:16.763Z,3825.00
2023-01-19T13:18:16.740Z,3852.00
2023-01-19T13:19:16.730Z,3872.00
2023-01-19T13:20:16.680Z,3893.00
2023-01-19T13:21:16.672Z,3921.00
2023-01-19T13:22:16.635Z,3973.00
2023-01-19T13:23:16.596Z,4005.00
2023-01-19T13:24:16.647Z,4020.00
2023-01-19T13:25:16.516Z,4027.00
2023-01-19T13:26:16.989Z,4046.00
2023-01-19T13:27:16.434Z,4062.00
2023-01-19T13:28:16.405Z,4084.00
2023-01-19T13:29:16.988Z,4103.00
2023-01-19T13:30:16.319Z,4119.00
2023-01-19T13:31:16.359Z,4155.00
2023-01-19T13:32:16.205Z,4183.00
2023-01-19T13:33:16.149Z,4206.00
2023-01-19T13:34:16.101Z,4223.00
2023-01-19T13:35:16.995Z,4252.00
2023-01-19T13:36:16.021Z,4285.00
2023-01-19T13:37:15.955Z,4305.00
2023-01-19T13:38:15.927Z,4328.00
2023-01-19T13:39:18.304Z,4351.00
2023-01-19T13:40:15.769Z,4381.00
2023-01-19T13:41:15.671Z,4413.00
2023-01-19T13:42:15.582Z,4444.00
2023-01-19T13:43:15.589Z,4498.00
2023-01-19T13:44:15.536Z,4525.00
2023-01-19T15:34:07.161Z,5234.00
2023-01-19T16:00:05.528Z,5049.00
2023-01-19T17:13:59.534Z,4542.00
2023-01-19T17:14:59.462Z,4531.00
2023-01-19T17:15:59.388Z,4523.00
2023-01-19T17:17:00.133Z,4511.00
2023-01-19T17:17:59.239Z,4501.00
2023-01-19T17:19:59.079Z,4500.00
2023-01-19T17:20:59.007Z,4489.00
2023-01-19T17:21:58.935Z,4480.00
2023-01-19T17:22:58.858Z,4473.00
2023-01-19T17:23:58.806Z,4465.00
2023-01-19T17:24:58.700Z,4458.00
2023-01-19T17:25:58.632Z,4461.00
2023-01-19T17:26:58.539Z,4457.00
2023-01-19T17:27:58.464Z,4449.00
2023-01-19T17:28:58.422Z,4441.00
2023-01-19T17:29:58.315Z,4446.00
2023-01-19T17:30:58.354Z,4449.00
2023-01-19T17:31:58.154Z,4442.00
2023-01-19T17:32:58.087Z,4434.00
2023-01-19T17:33:57.993Z,4434.00
2023-01-19T17:34:57.977Z,4419.00
2023-01-19T17:35:57.843Z,4407.00
2023-01-19T17:36:57.831Z,4392.00
2023-01-19T17:37:57.691Z,4385.00
2023-01-19T17:38:58.581Z,4386.00
2023-01-19T17:39:57.517Z,4387.00
2023-01-19T17:40:57.435Z,4392.00
2023-01-19T17:41:57.366Z,4391.00
2023-01-19T17:42:57.581Z,4369.00
2023-01-19T17:43:57.271Z,4354.00
2023-01-19T17:44:58.151Z,4353.00
2023-01-19T17:45:57.207Z,4347.00
2023-01-19T17:46:58.577Z,4344.00
2023-01-19T17:47:57.143Z,4334.00
2023-01-19T17:48:57.083Z,4327.00
2023-01-19T17:49:56.920Z,4312.00
2023-01-19T17:50:56.822Z,4310.00
2023-01-19T17:51:56.746Z,4305.00
2023-01-19T17:52:56.680Z,4295.00
2023-01-19T17:53:56.610Z,4291.00
2023-01-19T17:54:56.508Z,4286.00
2023-01-19T17:55:56.423Z,4285.00
2023-01-19T17:56:56.421Z,4281.00
2023-01-19T17:57:56.323Z,4272.00
2023-01-19T17:58:56.188Z,4261.00
2023-01-19T17:59:56.122Z,4251.00
2023-01-19T18:00:56.042Z,4246.00
2023-01-19T18:01:56.202Z,4243.00
2023-01-19T18:02:55.908Z,4241.00
2023-01-19T18:03:55.801Z,4239.00
2023-01-19T18:04:55.725Z,4226.00
2023-01-19T18:05:55.674Z,4221.00
2023-01-19T18:06:55.574Z,4217.00
2023-01-19T21:59:49.067Z,3107.00
2023-01-19T22:00:49.101Z,3108.00
2023-01-19T22:01:49.186Z,3106.00
2023-01-19T22:03:02.674Z,3100.00
2023-01-19T22:03:49.985Z,3090.00
2023-01-19T22:04:48.949Z,3089.00
2023-01-19T22:05:48.857Z,3087.00
2023-01-19T22:06:48.775Z,3083.00
2023-01-19T22:07:48.712Z,3080.00
2023-01-19T22:08:48.650Z,3079.00
2023-01-19T22:09:48.588Z,3074.00
2023-01-19T22:10:48.525Z,3071.00
2023-01-19T22:11:48.442Z,3064.00
2023-01-19T22:12:48.436Z,3053.00
2023-01-19T22:13:48.460Z,3053.00
2023-01-19T22:14:48.447Z,3048.00
2023-01-19T22:15:48.511Z,3048.00
2023-01-19T22:16:48.477Z,3045.00
2023-01-19T22:17:48.438Z,3039.00
2023-01-19T22:18:48.441Z,3035.00
2023-01-19T22:19:48.460Z,3030.00
2023-01-19T22:20:48.433Z,3026.00
2023-01-19T22:21:48.427Z,3020.00
2023-01-19T22:22:48.422Z,3015.00
2023-01-19T22:23:48.417Z,3011.00
2023-01-19T22:24:48.417Z,3011.00
2023-01-19T22:25:48.424Z,3005.00
2023-01-19T22:26:48.419Z,2998.00
2023-01-19T22:27:48.420Z,2991.00
2023-01-19T22:28:48.457Z,2986.00
2023-01-19T22:29:48.400Z,2986.00
2023-01-19T22:30:48.534Z,2986.00
2023-01-19T22:31:50.160Z,2979.00
2023-01-19T22:32:48.326Z,2979.00
2023-01-19T22:33:48.256Z,2976.00
2023-01-19T22:34:48.177Z,2972.00
2023-01-19T22:35:48.098Z,2968.00
2023-01-19T22:36:48.037Z,2963.00
2023-01-19T22:37:47.978Z,2957.00
2023-01-19T22:38:47.892Z,2950.00
2023-01-19T22:39:47.817Z,2951.00
2023-01-19T22:40:47.789Z,2942.00
2023-01-19T22:41:47.684Z,2938.00
2023-01-19T22:42:47.651Z,2940.00
2023-01-19T22:43:47.536Z,2940.00
2023-01-19T22:44:47.458Z,2948.00
2023-01-19T22:45:47.426Z,2949.00
2023-01-19T22:46:47.336Z,2940.00
2023-01-19T22:47:47.270Z,2935.00
2023-01-19T22:48:47.185Z,2925.00
2023-01-19T22:49:47.117Z,2918.00
2023-01-19T22:50:47.056Z,2912.00
2023-01-19T22:51:46.983Z,2905.00
2023-01-19T22:52:46.927Z,2901.00
2023-01-19T22:53:46.834Z,2898.00
2023-01-19T22:54:46.750Z,2893.00
2023-01-19T22:55:46.668Z,2885.00
2023-01-19T22:56:46.608Z,2880.00
2023-01-19T22:57:46.517Z,2878.00
2023-01-19T22:58:46.465Z,2881.00
2023-01-19T22:59:46.393Z,2876.00
2023-01-19T23:00:47.174Z,2868.00
2023-01-19T23:01:46.365Z,2859.00
2023-01-19T23:02:46.182Z,2852.00
2023-01-19T23:03:46.170Z,2850.00
2023-01-19T23:04:46.139Z,2852.00
2023-01-19T23:05:46.141Z,2851.00
2023-01-19T23:06:46.112Z,2851.00
2023-01-19T23:07:46.116Z,2853.00
2023-01-19T23:08:46.141Z,2855.00
2023-01-19T23:09:46.141Z,2852.00
2023-01-19T23:10:46.103Z,2848.00
2023-01-19T23:11:46.114Z,2849.00
2023-01-19T23:12:46.119Z,2850.00
2023-01-19T23:13:46.089Z,2846.00
2023-01-19T23:14:46.100Z,2842.00
2023-01-19T23:15:46.109Z,2839.00
2023-01-19T23:16:46.083Z,2835.00
2023-01-19T23:17:46.150Z,2831.00
2023-01-19T23:18:46.107Z,2825.00
2023-01-19T23:19:46.169Z,2820.00
2023-01-19T23:20:46.091Z,2815.00
2023-01-19T23:21:46.119Z,2808.00
2023-01-19T23:22:46.100Z,2804.00
2023-01-19T23:23:46.097Z,2790.00
2023-01-19T23:24:46.098Z,2784.00
2023-01-19T23:25:46.119Z,2776.00
2023-01-19T23:26:46.103Z,2774.00
2023-01-19T23:27:46.089Z,2768.00
2023-01-19T23:28:46.083Z,2773.00
2023-01-19T23:29:46.088Z,2771.00
2023-01-19T23:30:46.157Z,2766.00
2023-01-19T23:31:46.104Z,2764.00
2023-01-19T23:32:46.065Z,2762.00
2023-01-19T23:33:46.068Z,2761.00
2023-01-19T23:34:46.061Z,2760.00
2023-01-19T23:35:46.729Z,2754.00
2023-01-19T23:36:46.054Z,2747.00
2023-01-19T23:37:46.018Z,2738.00
2023-01-19T23:38:46.018Z,2734.00
2023-01-19T23:39:46.025Z,2730.00
2023-01-19T23:40:46.015Z,2729.00
2023-01-19T23:41:46.020Z,2728.00
2023-01-19T23:42:46.008Z,2722.00
2023-01-19T23:43:46.006Z,2718.00
2023-01-19T23:44:46.131Z,2710.00
2023-01-19T23:45:45.995Z,2700.00
2023-01-19T23:46:45.995Z,2698.00
2023-01-19T23:47:46.003Z,2698.00
2023-01-19T23:48:45.993Z,2697.00
2023-01-19T23:49:45.984Z,2697.00
2023-01-19T23:50:45.946Z,2695.00
2023-01-19T23:51:45.927Z,2686.00
2023-01-19T23:52:45.896Z,2681.00
2023-01-19T23:53:45.986Z,2674.00
2023-01-19T23:54:45.885Z,2673.00
2023-01-19T23:55:45.897Z,2675.00
2023-01-19T23:56:45.879Z,2672.00
2023-01-19T23:57:45.854Z,2666.00
2023-01-19T23:58:45.845Z,2656.00
2023-01-19T23:59:45.809Z,2646.00
